Josephine, Pennsylvania
Current Conditions -  °F | °C
As of 1:55 AM on Tuesday 21 Oct 2014 (Local Time) from KIDI Reporting Station
Overcast Overcast  
Wind Chill: 50°   Ceiling: 2300
Heat Index: 50°   Visibility: 9mi
Dew Point: 48°   Wind: 6mph
Humidity: 94%   Direction: 230°SW
Pressure: 29.89"   Gusts: NA
Location:  40.48°N, 79.18°W
Report Text: KIDI 210555Z AUTO 23005KT 9SM SCT017 BKN023 OVC044 10/09 A2989 RMK A01
Loading
Personal Weather Stations






























Interactive Weather Map
Tropical Storm Tracking
New forecast layout! Learn more

10-Day Weather Forecast

Advertisements
Track Severe Weather on mobile